Time;durP1;ratioP1;P1;durP2;ratioP2;P2;SDS_P1;SDS_P2;PMS_P1;PMS_P2;Temp;Humidity;BMP_temperature;BMP_pressure;BME280_temperature;BME280_humidity;BME280_pressure;Samples;Min_cycle;Max_cycle;Signal;HPM_P1;HPM_P2
2022/03/07 05:22:33;;;;;;;7.28;4.90;;;;;;;-1.39;65.09;101018.88;5129644;27;20123;-71
2022/03/07 05:24:59;;;;;;;6.57;4.55;;;;;;;-1.41;65.19;101014.66;5129929;28;20036;-69
2022/03/07 05:27:24;;;;;;;6.07;4.03;;;;;;;-1.43;65.58;101019.13;5129791;28;20506;-70
2022/03/07 05:29:50;;;;;;;6.35;4.53;;;;;;;-1.41;66.16;101014.66;5111397;28;20035;-70
2022/03/07 05:32:15;;;;;;;6.63;4.50;;;;;;;-1.44;65.71;101020.84;5129914;28;20028;-70
2022/03/07 05:34:41;;;;;;;5.57;4.32;;;;;;;-1.41;66.14;101018.09;5129764;27;20472;-70
2022/03/07 05:37:07;;;;;;;6.35;4.40;;;;;;;-1.41;64.64;101018.09;5129670;28;20043;-70
2022/03/07 05:39:32;;;;;;;5.93;4.20;;;;;;;-1.41;65.02;101015.50;5111425;28;20456;-69
2022/03/07 05:41:58;;;;;;;6.43;4.40;;;;;;;-1.42;65.41;101021.66;5128576;28;20039;-70
2022/03/07 05:44:24;;;;;;;6.15;4.55;;;;;;;-1.42;64.99;101012.97;5130141;28;20070;-71
2022/03/07 05:46:49;;;;;;;6.38;4.47;;;;;;;-1.36;64.89;101017.88;5128363;28;20552;-71
2022/03/07 05:49:15;;;;;;;7.55;4.50;;;;;;;-1.38;66.03;101017.09;5129548;28;20640;-70
2022/03/07 05:51:42;;;;;;;5.90;4.25;;;;;;;-1.36;65.06;101017.88;5129267;27;20024;-69
2022/03/07 05:54:07;;;;;;;5.90;3.75;;;;;;;-1.33;64.69;101019.47;5129432;28;20108;-71
2022/03/07 05:56:33;;;;;;;5.45;4.13;;;;;;;-1.37;65.26;101019.66;5128127;28;20440;-71
2022/03/07 05:58:58;;;;;;;7.25;4.25;;;;;;;-1.38;64.54;101017.09;5110914;28;20036;-70
2022/03/07 06:01:24;;;;;;;5.25;4.32;;;;;;;-1.38;64.94;101027.53;5129083;28;20036;-70
2022/03/07 06:03:50;;;;;;;4.93;4.05;;;;;;;-1.43;64.50;101032.19;5129122;28;20039;-71
2022/03/07 06:06:15;;;;;;;5.88;4.15;;;;;;;-1.44;65.03;101025.25;5129116;28;20088;-71
2022/03/07 06:08:41;;;;;;;6.90;3.88;;;;;;;-1.45;64.60;101029.63;5129113;28;20085;-71
2022/03/07 06:11:06;;;;;;;5.72;4.00;;;;;;;-1.39;64.18;101031.09;5128974;28;20042;-70
2022/03/07 06:13:32;;;;;;;6.22;4.40;;;;;;;-1.34;63.49;101030.88;5127341;28;20039;-71
2022/03/07 06:15:58;;;;;;;5.13;3.80;;;;;;;-1.36;64.18;101033.56;5128055;28;20043;-70
2022/03/07 06:18:24;;;;;;;6.18;3.97;;;;;;;-1.34;63.31;101036.09;5127594;28;20039;-70
2022/03/07 06:20:50;;;;;;;5.75;4.43;;;;;;;-1.33;63.83;101029.94;5128699;28;20040;-70
2022/03/07 06:23:15;;;;;;;4.72;4.07;;;;;;;-1.29;63.87;101037.56;5127160;28;20112;-70
2022/03/07 06:25:41;;;;;;;5.32;4.50;;;;;;;-1.24;62.75;101038.16;5127385;28;20043;-70
2022/03/07 06:28:07;;;;;;;5.10;3.75;;;;;;;-1.18;62.81;101040.44;5128488;28;20074;-71
2022/03/07 06:30:32;;;;;;;7.20;4.70;;;;;;;-1.19;62.22;101040.53;5127257;28;20038;-71
2022/03/07 06:32:58;;;;;;;5.68;4.05;;;;;;;-1.08;62.21;101032.13;5118565;28;20411;-70
2022/03/07 06:35:24;;;;;;;7.25;4.10;;;;;;;-1.03;61.75;101038.81;5114777;28;20059;-70
2022/03/07 06:37:51;;;;;;;5.05;4.03;;;;;;;-0.95;61.51;101043.66;5113497;28;20469;-71
2022/03/07 06:40:18;;;;;;;5.70;3.83;;;;;;;-0.90;61.81;101036.41;5114643;28;20035;-70
2022/03/07 06:42:46;;;;;;;6.32;3.90;;;;;;;-0.88;61.55;101045.00;5113087;28;20038;-70
2022/03/07 06:45:12;;;;;;;6.47;4.35;;;;;;;-0.79;60.45;101048.91;5114718;28;20094;-70
2022/03/07 06:47:42;;;;;;;5.95;4.10;;;;;;;-0.71;60.44;101046.75;5114676;28;20165;-70
2022/03/07 06:50:08;;;;;;;4.90;3.90;;;;;;;-0.60;60.85;101055.69;5114585;28;20038;-72
2022/03/07 06:52:34;;;;;;;6.90;4.57;;;;;;;-0.55;59.58;101048.44;5113020;28;20027;-71
2022/03/07 06:55:00;;;;;;;5.95;4.35;;;;;;;-0.41;59.39;101052.94;5096284;28;20063;-70
2022/03/07 06:57:26;;;;;;;6.45;4.13;;;;;;;-0.32;59.72;101047.22;5114288;28;20766;-71
2022/03/07 06:59:51;;;;;;;6.35;4.28;;;;;;;-0.19;58.09;101054.38;5113169;28;20042;-70
2022/03/07 07:02:18;;;;;;;5.25;4.13;;;;;;;-0.09;57.62;101058.16;5114061;28;20505;-71
2022/03/07 07:04:43;;;;;;;5.38;4.03;;;;;;;-0.04;58.30;101057.00;5114332;28;20430;-71
2022/03/07 07:07:09;;;;;;;4.70;4.00;;;;;;;0.13;57.22;101055.19;5114197;28;20042;-71
2022/03/07 07:09:35;;;;;;;5.85;4.00;;;;;;;0.24;57.04;101053.66;5114207;28;20480;-71
2022/03/07 07:12:01;;;;;;;5.45;3.92;;;;;;;0.17;57.61;101054.09;5112566;28;20039;-69
2022/03/07 07:14:27;;;;;;;6.50;4.03;;;;;;;0.32;57.20;101058.44;5114072;28;20028;-70
2022/03/07 07:16:53;;;;;;;5.57;4.10;;;;;;;0.46;56.08;101055.06;5114101;27;20034;-70
2022/03/07 07:19:19;;;;;;;6.57;4.10;;;;;;;0.56;58.22;101050.09;5112820;28;20043;-70
2022/03/07 07:21:44;;;;;;;6.97;4.45;;;;;;;0.69;56.10;101067.66;5113586;28;20542;-70
2022/03/07 07:24:10;;;;;;;8.50;4.13;;;;;;;0.65;55.64;101062.66;5113811;28;20115;-69
2022/03/07 07:26:36;;;;;;;5.93;4.05;;;;;;;0.73;55.55;101069.16;5113697;28;20431;-71
2022/03/07 07:29:02;;;;;;;5.03;4.07;;;;;;;0.87;55.61;101078.00;5113854;28;20480;-70
2022/03/07 07:31:27;;;;;;;6.22;5.03;;;;;;;1.02;54.71;101067.44;5113747;28;20081;-71
2022/03/07 07:33:53;;;;;;;5.45;4.18;;;;;;;1.15;54.68;101079.81;5113611;27;20403;-69
2022/03/07 07:36:19;;;;;;;6.30;4.15;;;;;;;1.04;54.15;101075.19;5112533;28;20513;-69
2022/03/07 07:38:44;;;;;;;7.47;4.30;;;;;;;1.19;54.32;101079.53;5113750;28;20043;-69
2022/03/07 07:41:10;;;;;;;7.22;4.30;;;;;;;1.29;53.28;101079.81;5113405;28;20071;-70
2022/03/07 07:43:36;;;;;;;5.30;4.20;;;;;;;1.45;52.84;101074.47;5112830;28;20479;-69
2022/03/07 07:46:03;;;;;;;6.20;4.15;;;;;;;1.53;51.95;101078.31;5113107;28;20135;-71
2022/03/07 07:48:29;;;;;;;7.72;4.07;;;;;;;1.04;53.92;101076.06;5112378;28;20031;-69
2022/03/07 07:50:55;;;;;;;5.78;4.35;;;;;;;1.41;52.44;101083.47;5113628;28;20584;-69
2022/03/07 07:53:20;;;;;;;7.00;4.95;;;;;;;1.63;51.84;101083.84;5113227;28;20035;-69
2022/03/07 07:55:46;;;;;;;9.48;4.57;;;;;;;1.53;52.02;101080.09;5113171;28;20033;-70
2022/03/07 07:58:12;;;;;;;6.38;4.13;;;;;;;1.58;51.75;101086.75;5113414;28;20114;-71
2022/03/07 08:00:38;;;;;;;7.70;4.50;;;;;;;1.70;51.75;101092.19;5113239;28;20036;-69
2022/03/07 08:03:04;;;;;;;5.50;4.60;;;;;;;1.99;50.33;101095.59;5113305;28;20034;-71
2022/03/07 08:05:29;;;;;;;6.35;4.43;;;;;;;1.65;50.74;101096.88;5111858;28;20036;-69
2022/03/07 08:07:56;;;;;;;6.10;4.50;;;;;;;1.92;49.71;101095.16;5113076;28;20127;-70
2022/03/07 08:10:21;;;;;;;7.03;4.72;;;;;;;1.90;49.48;101087.38;5112996;28;20433;-69
2022/03/07 08:12:47;;;;;;;7.20;5.25;;;;;;;1.84;49.64;101098.25;5111492;28;20031;-70
2022/03/07 08:15:13;;;;;;;7.50;5.25;;;;;;;1.95;49.31;101094.94;5112867;28;20039;-70
2022/03/07 08:17:49;;;;;;;7.75;5.18;;;;;;;2.05;49.08;101095.22;5111847;28;20044;-71
2022/03/07 08:20:19;;;;;;;6.78;4.93;;;;;;;2.03;49.32;101091.84;5112910;28;20035;-71
2022/03/07 08:22:47;;;;;;;8.25;5.30;;;;;;;2.22;48.44;101094.09;5111247;28;20130;-70
2022/03/07 08:25:13;;;;;;;9.13;5.05;;;;;;;2.21;48.99;101095.91;5112646;28;20050;-71
2022/03/07 08:27:39;;;;;;;8.35;5.47;;;;;;;2.36;47.90;101092.28;5112880;28;20039;-70
2022/03/07 08:30:08;;;;;;;8.75;5.60;;;;;;;2.44;48.10;101092.63;5112825;28;20095;-70
2022/03/07 08:32:35;;;;;;;8.65;5.40;;;;;;;2.50;48.15;101093.19;5112521;28;20019;-71
2022/03/07 08:35:02;;;;;;;6.95;4.90;;;;;;;2.79;47.78;101097.34;5112894;28;20039;-71
2022/03/07 08:37:27;;;;;;;7.82;5.10;;;;;;;2.94;47.52;101090.22;5112610;28;20495;-71
2022/03/07 08:39:53;;;;;;;8.35;5.68;;;;;;;3.05;46.70;101087.69;5112936;28;20032;-72
2022/03/07 08:42:19;;;;;;;10.52;5.10;;;;;;;3.17;46.09;101091.28;5112291;28;20028;-71
2022/03/07 08:44:45;;;;;;;8.45;6.18;;;;;;;2.85;46.92;101094.28;5112667;28;20036;-69
2022/03/07 08:47:11;;;;;;;8.52;5.32;;;;;;;2.87;45.96;101081.03;5112550;28;20039;-70
2022/03/07 08:49:40;;;;;;;8.00;5.50;;;;;;;2.98;46.40;101095.16;5112428;28;20045;-69
2022/03/07 08:52:07;;;;;;;9.70;6.22;;;;;;;2.85;46.55;101075.88;5110772;28;20036;-70
2022/03/07 08:54:39;;;;;;;7.45;5.68;;;;;;;3.05;45.61;101092.09;5111122;28;20035;-69
2022/03/07 08:57:05;;;;;;;8.23;5.82;;;;;;;3.23;45.51;101083.78;5111290;28;20400;-70
2022/03/07 08:59:30;;;;;;;8.60;6.10;;;;;;;3.22;45.34;101097.91;5112331;28;20031;-70
2022/03/07 09:01:57;;;;;;;8.27;5.63;;;;;;;3.32;45.68;101100.75;5111968;28;20088;-70
2022/03/07 09:04:24;;;;;;;9.38;5.93;;;;;;;3.57;44.54;101104.31;5112066;28;20484;-69
2022/03/07 09:06:51;;;;;;;9.03;6.17;;;;;;;3.57;44.15;101106.94;5110806;28;20088;-70
2022/03/07 09:09:16;;;;;;;9.68;6.10;;;;;;;3.58;44.35;101108.63;5111932;28;20039;-70
2022/03/07 09:11:43;;;;;;;10.02;6.10;;;;;;;3.84;44.30;101091.81;5111777;28;20019;-71
2022/03/07 09:14:08;;;;;;;9.68;5.65;;;;;;;3.81;43.17;101097.31;5112169;28;20480;-71
2022/03/07 09:16:34;;;;;;;7.82;6.10;;;;;;;3.86;43.94;101111.03;5112012;28;20035;-72
2022/03/07 09:19:00;;;;;;;9.23;6.47;;;;;;;3.72;43.82;101105.88;5112030;28;20039;-71
2022/03/07 09:21:26;;;;;;;8.60;6.47;;;;;;;3.76;43.19;101112.59;5111693;28;20101;-70
2022/03/07 09:23:51;;;;;;;8.75;5.55;;;;;;;3.86;42.70;101104.91;5110681;28;20055;-72
2022/03/07 09:26:17;;;;;;;9.02;6.40;;;;;;;3.68;42.83;101097.34;5110517;28;20403;-72
2022/03/07 09:28:43;;;;;;;7.82;5.70;;;;;;;3.96;42.72;101101.50;5111181;28;20027;-71
2022/03/07 09:31:08;;;;;;;9.48;6.60;;;;;;;4.21;42.49;101103.19;5110395;28;20032;-72
2022/03/07 09:33:35;;;;;;;8.52;6.38;;;;;;;4.01;43.05;101102.00;5111485;28;20102;-70
2022/03/07 09:36:03;;;;;;;8.57;6.43;;;;;;;3.96;43.09;101111.19;5111690;28;20036;-69
2022/03/07 09:38:29;;;;;;;;;;;;;;;3.85;43.18;101114.63;5112432;28;20043;-69
2022/03/07 09:40:56;;;;;;;7.97;6.28;;;;;;;4.07;42.70;101108.63;5111604;28;19972;-69
2022/03/07 09:43:22;;;;;;;8.15;6.03;;;;;;;4.17;41.95;101112.28;5111352;28;20070;-69
2022/03/07 09:45:48;;;;;;;8.82;5.95;;;;;;;4.27;42.12;101115.94;5111564;28;20035;-71
2022/03/07 09:48:14;;;;;;;7.38;6.30;;;;;;;4.31;42.98;101100.75;5111556;28;20402;-70
2022/03/07 09:50:41;;;;;;;9.05;6.13;;;;;;;4.57;42.33;101104.94;5111668;28;20058;-71
2022/03/07 09:53:08;;;;;;;9.65;5.93;;;;;;;4.91;41.38;101094.50;5110208;28;20392;-71
2022/03/07 09:55:35;;;;;;;7.30;6.00;;;;;;;5.03;39.97;101104.13;5111583;28;20088;-71
2022/03/07 09:58:01;;;;;;;8.73;6.30;;;;;;;4.91;39.98;101110.34;5111629;28;20107;-72
2022/03/07 10:00:27;;;;;;;10.50;6.45;;;;;;;4.78;41.04;101104.31;5111843;28;20395;-70
2022/03/07 10:02:53;;;;;;;9.30;6.68;;;;;;;5.05;41.86;101091.66;5109757;28;20031;-71
2022/03/07 10:05:19;;;;;;;8.15;6.30;;;;;;;5.21;39.78;101095.75;5111495;28;20115;-70
2022/03/07 10:07:45;;;;;;;8.85;6.75;;;;;;;5.13;39.82;101099.81;5112622;28;20031;-70
2022/03/07 10:10:12;;;;;;;9.35;6.85;;;;;;;4.99;39.50;101101.84;5115242;28;20032;-70
2022/03/07 10:12:51;;;;;;;8.07;6.43;;;;;;;5.03;39.99;101108.56;5113798;28;20037;-70
2022/03/07 10:15:18;;;;;;;9.65;6.57;;;;;;;5.35;39.71;101104.31;5114934;28;20039;-71
2022/03/07 10:17:50;;;;;;;7.57;6.03;;;;;;;5.78;38.07;101105.38;5115210;28;20030;-70
2022/03/07 10:20:19;;;;;;;7.65;6.15;;;;;;;6.18;37.36;101119.75;5114972;28;20028;-70
2022/03/07 10:22:50;;;;;;;8.50;6.63;;;;;;;6.74;35.77;101106.34;5114805;28;20040;-70
2022/03/07 10:25:21;;;;;;;8.15;5.82;;;;;;;6.83;36.65;101098.59;5113687;28;20036;-70
2022/03/07 10:27:49;;;;;;;9.10;6.25;;;;;;;7.38;34.77;101108.03;5113854;28;20115;-70
2022/03/07 10:30:26;;;;;;;8.20;6.45;;;;;;;7.44;34.18;101107.50;5114952;28;20088;-71
2022/03/07 10:33:05;;;;;;;9.40;6.78;;;;;;;7.50;33.25;101095.53;5114648;28;20523;-69
2022/03/07 10:35:37;;;;;;;7.65;5.90;;;;;;;7.53;33.53;101101.41;5114776;28;20130;-70
2022/03/07 10:38:04;;;;;;;8.43;6.20;;;;;;;7.23;34.05;101104.84;5114835;28;20413;-69
2022/03/07 10:40:32;;;;;;;7.50;6.45;;;;;;;7.26;34.09;101104.63;5113272;28;20032;-69
2022/03/07 10:43:00;;;;;;;8.25;6.47;;;;;;;7.39;33.65;101106.22;5114418;28;20084;-70
2022/03/07 10:45:30;;;;;;;7.47;6.15;;;;;;;7.20;34.13;101086.59;5114689;28;20023;-70
2022/03/07 10:48:06;;;;;;;6.57;5.85;;;;;;;6.98;34.10;101092.88;5114789;28;20082;-69
2022/03/07 10:50:31;;;;;;;8.68;6.97;;;;;;;6.20;35.49;101090.56;5114754;28;20549;-70
2022/03/07 10:53:06;;;;;;;7.18;6.13;;;;;;;6.65;35.18;101090.38;5114215;28;20032;-69
2022/03/07 10:55:33;;;;;;;11.48;6.47;;;;;;;6.89;34.11;101088.34;5114687;28;20031;-70
2022/03/07 10:58:06;;;;;;;8.55;5.93;;;;;;;7.40;34.16;101089.34;5113406;28;20066;-71
2022/03/07 11:00:32;;;;;;;7.80;6.13;;;;;;;7.93;33.42;101091.75;5113261;28;20042;-71
2022/03/07 11:02:58;;;;;;;7.00;6.30;;;;;;;8.86;32.41;101080.69;5114393;28;20032;-71
2022/03/07 11:05:25;;;;;;;7.43;5.80;;;;;;;8.73;32.15;101083.63;5114528;28;20400;-70
2022/03/07 11:07:50;;;;;;;7.63;6.20;;;;;;;9.24;31.04;101082.41;5114442;28;20116;-69
2022/03/07 11:10:16;;;;;;;6.85;6.15;;;;;;;9.25;30.48;101084.09;5114393;28;20073;-71
2022/03/07 11:12:43;;;;;;;7.85;6.28;;;;;;;9.27;30.08;101082.16;5114146;28;20031;-72
2022/03/07 11:15:10;;;;;;;6.82;6.03;;;;;;;9.35;30.45;101078.75;5114496;28;20058;-71
2022/03/07 11:17:44;;;;;;;9.55;6.28;;;;;;;9.17;30.08;101074.19;5114252;28;20036;-70
2022/03/07 11:20:17;;;;;;;8.88;6.10;;;;;;;9.01;30.63;101071.31;5113966;28;20039;-71
2022/03/07 11:22:43;;;;;;;7.15;6.05;;;;;;;9.59;29.24;101071.13;5113834;28;20636;-72
2022/03/07 11:25:10;;;;;;;7.72;6.57;;;;;;;9.43;29.56;101058.44;5112916;28;20118;-72
2022/03/07 11:27:37;;;;;;;6.60;5.68;;;;;;;10.14;28.05;101062.25;5113891;28;20036;-73
2022/03/07 11:30:14;;;;;;;7.60;6.25;;;;;;;9.56;29.30;101066.06;5114031;28;20059;-72
2022/03/07 11:32:39;;;;;;;8.68;6.63;;;;;;;9.68;28.92;101056.09;5114125;28;20453;-70
2022/03/07 11:35:05;;;;;;;7.10;5.70;;;;;;;10.38;29.02;101051.06;5113729;28;20092;-72
2022/03/07 11:37:32;;;;;;;6.75;5.85;;;;;;;10.69;28.41;101062.13;5113638;28;20074;-73
2022/03/07 11:39:59;;;;;;;8.27;5.72;;;;;;;10.22;29.11;101055.19;5112547;28;20038;-72
2022/03/07 11:42:38;;;;;;;8.15;5.70;;;;;;;10.14;28.64;101056.94;5113495;28;20063;-73
2022/03/07 11:45:19;;;;;;;8.35;6.90;;;;;;;9.95;29.59;101058.72;5112380;28;20449;-73
2022/03/07 11:47:47;;;;;;;7.10;6.07;;;;;;;10.50;28.58;101049.84;5113734;28;20046;-73
2022/03/07 11:50:15;;;;;;;6.32;5.53;;;;;;;10.63;28.55;101052.06;5113575;28;20039;-72
2022/03/07 11:52:42;;;;;;;7.30;6.07;;;;;;;10.58;28.69;101047.22;5094916;28;20035;-73
2022/03/07 11:55:16;;;;;;;7.97;6.47;;;;;;;10.14;29.05;101039.13;5112243;28;20035;-73
2022/03/07 11:57:43;;;;;;;7.18;6.15;;;;;;;10.45;28.99;101042.28;5113389;28;20058;-73
2022/03/07 12:00:31;;;;;;;6.68;5.88;;;;;;;11.48;27.58;101035.31;5113479;27;20088;-73
2022/03/07 12:02:59;;;;;;;8.98;6.50;;;;;;;11.69;27.33;101050.91;5113096;28;20067;-73
2022/03/07 12:05:25;;;;;;;6.63;5.93;;;;;;;12.13;27.10;101045.41;5113010;28;20043;-73
2022/03/07 12:07:52;;;;;;;6.95;5.85;;;;;;;11.28;27.31;101040.06;5113167;28;20128;-72
2022/03/07 12:10:18;;;;;;;7.65;6.70;;;;;;;10.99;27.50;101043.03;5111891;28;20433;-73
2022/03/07 12:12:44;;;;;;;8.35;6.70;;;;;;;11.07;27.15;101037.75;5112762;28;20077;-74
2022/03/07 12:15:12;;;;;;;7.00;5.72;;;;;;;11.08;27.46;101027.91;5113042;28;20497;-72
2022/03/07 12:17:39;;;;;;;7.25;6.50;;;;;;;11.05;27.59;101023.75;5111631;28;20107;-73
2022/03/07 12:20:06;;;;;;;7.93;6.30;;;;;;;10.78;27.19;101024.75;5094715;28;20540;-75
2022/03/07 12:22:34;;;;;;;8.00;6.70;;;;;;;11.29;27.17;101024.91;5111352;28;20039;-73
2022/03/07 12:25:08;;;;;;;7.95;6.07;;;;;;;11.37;27.09;101008.91;5111615;28;20027;-73
2022/03/07 12:27:37;;;;;;;7.85;6.57;;;;;;;11.12;27.37;101014.13;5111511;28;20043;-72
2022/03/07 12:30:08;;;;;;;7.22;6.50;;;;;;;10.99;27.30;101013.72;5111075;28;20031;-72
2022/03/07 12:32:36;;;;;;;7.75;6.40;;;;;;;10.94;27.04;101021.34;5112428;28;20031;-73
2022/03/07 12:35:01;;;;;;;6.97;6.28;;;;;;;11.00;27.35;101010.03;5112585;28;20043;-72
2022/03/07 12:37:28;;;;;;;6.47;5.78;;;;;;;10.83;27.00;101006.47;5112615;28;20031;-73
2022/03/07 12:39:59;;;;;;;8.35;6.30;;;;;;;11.38;26.61;101013.25;5112717;28;20509;-72
2022/03/07 12:42:29;;;;;;;8.10;6.13;;;;;;;11.92;25.85;100979.94;5112155;28;20057;-70
2022/03/07 12:44:59;;;;;;;7.13;6.43;;;;;;;11.51;26.64;100994.97;5112579;28;20046;-70
2022/03/07 12:47:29;;;;;;;8.02;6.05;;;;;;;11.97;26.59;100970.59;5112502;28;20035;-69
2022/03/07 12:49:56;;;;;;;7.47;6.13;;;;;;;11.78;26.45;100985.03;5111187;28;20039;-70
2022/03/07 12:52:25;;;;;;;6.78;6.07;;;;;;;12.12;25.52;100977.78;5110752;28;20114;-70
2022/03/07 12:54:51;;;;;;;7.35;6.53;;;;;;;11.67;25.58;100976.34;5112412;28;20510;-71
2022/03/07 12:57:17;;;;;;;9.25;6.97;;;;;;;10.68;26.78;100956.53;5112311;28;20223;-71
2022/03/07 12:59:43;;;;;;;9.13;6.05;;;;;;;11.59;26.29;100957.63;5112364;28;20531;-71
2022/03/07 13:02:09;;;;;;;8.27;6.90;;;;;;;11.95;25.60;100957.41;5111833;28;20032;-73
2022/03/07 13:04:34;;;;;;;7.18;6.30;;;;;;;11.94;25.26;100955.75;5111987;28;20504;-71
2022/03/07 13:07:11;;;;;;;6.80;6.10;;;;;;;11.64;25.29;100959.81;5112015;28;20122;-71
2022/03/07 13:09:39;;;;;;;7.80;6.28;;;;;;;12.09;25.52;100945.25;5110788;28;20075;-70
2022/03/07 13:12:09;;;;;;;7.80;6.10;;;;;;;12.37;24.96;100943.06;5111776;28;20583;-72
2022/03/07 13:14:36;;;;;;;9.05;7.13;;;;;;;11.51;25.75;100938.94;5112000;28;20035;-72
2022/03/07 13:17:13;;;;;;;9.27;7.25;;;;;;;12.47;25.56;100927.72;5111894;28;20101;-73
2022/03/07 13:19:43;;;;;;;8.52;7.07;;;;;;;11.86;25.51;100927.19;5111847;28;20036;-71
2022/03/07 13:22:09;;;;;;;7.63;6.15;;;;;;;11.76;25.96;100923.00;5111414;28;20392;-71
2022/03/07 13:24:36;;;;;;;7.85;6.72;;;;;;;9.77;27.91;100933.63;5111898;28;20441;-70
2022/03/07 13:27:11;;;;;;;8.05;6.82;;;;;;;11.15;26.28;100927.66;5111959;28;20032;-70
2022/03/07 13:29:42;;;;;;;9.25;6.97;;;;;;;11.58;25.83;100915.09;5111855;28;20043;-71
2022/03/07 13:32:16;;;;;;;8.93;6.57;;;;;;;11.80;25.50;100911.81;5111435;28;20020;-70
2022/03/07 13:34:46;;;;;;;8.55;6.72;;;;;;;11.51;26.63;100914.94;5111833;28;20527;-69
2022/03/07 13:37:17;;;;;;;7.40;6.55;;;;;;;11.93;25.62;100919.34;5111707;28;20035;-69
2022/03/07 13:39:44;;;;;;;7.93;6.45;;;;;;;12.35;25.72;100907.69;5111707;28;20032;-70
2022/03/07 13:42:14;;;;;;;8.10;6.72;;;;;;;11.14;26.20;100921.47;5111813;28;20030;-70
2022/03/07 13:44:56;;;;;;;8.60;6.63;;;;;;;10.53;27.31;100927.81;5116143;28;20077;-71
2022/03/07 13:47:32;;;;;;;9.10;6.85;;;;;;;9.76;28.40;100913.34;5114538;28;20381;-70
2022/03/07 13:50:08;;;;;;;7.68;6.88;;;;;;;9.97;29.11;100910.34;5115806;28;20046;-71
2022/03/07 13:52:42;;;;;;;8.52;7.03;;;;;;;9.89;28.61;100912.97;5114248;28;20484;-72
2022/03/07 13:55:13;;;;;;;7.65;6.70;;;;;;;10.36;27.54;100909.19;5115632;28;20032;-72
2022/03/07 13:57:43;;;;;;;9.80;7.25;;;;;;;9.42;28.66;100910.50;5115618;28;20036;-72
2022/03/07 14:00:16;;;;;;;8.75;6.43;;;;;;;8.04;30.93;100903.28;5115511;28;20074;-70
2022/03/07 14:02:44;;;;;;;8.32;6.70;;;;;;;8.14;31.07;100912.03;5114053;28;20134;-71
2022/03/07 14:05:10;;;;;;;;;;;;;;;8.42;30.62;100913.88;5114689;28;20521;-71
2022/03/07 14:07:41;;;;;;;9.65;7.45;;;;;;;8.67;29.68;100908.88;5113972;28;19968;-70
2022/03/07 14:10:16;;;;;;;7.85;7.00;;;;;;;8.11;30.69;100902.56;5115266;28;20499;-70
2022/03/07 14:12:50;;;;;;;9.20;7.28;;;;;;;8.24;31.52;100904.91;5113930;28;20035;-70
2022/03/07 14:15:24;;;;;;;8.93;6.78;;;;;;;7.67;31.20;100893.34;5115150;28;20048;-70
2022/03/07 14:17:57;;;;;;;9.15;7.00;;;;;;;7.53;31.92;100899.91;5115150;28;20027;-70
2022/03/07 14:20:22;;;;;;;10.57;7.20;;;;;;;7.54;31.32;100898.09;5115135;28;20031;-70
2022/03/07 14:22:48;;;;;;;8.63;7.25;;;;;;;7.61;31.55;100893.91;5115048;28;20043;-69
2022/03/07 14:25:13;;;;;;;9.27;6.80;;;;;;;7.74;31.29;100883.84;5114964;27;20160;-70
2022/03/07 14:27:39;;;;;;;9.85;7.10;;;;;;;7.63;31.07;100891.97;5114050;28;20054;-71
2022/03/07 14:30:06;;;;;;;10.00;6.93;;;;;;;7.64;31.29;100888.34;5114109;28;20042;-72
2022/03/07 14:32:33;;;;;;;9.23;7.50;;;;;;;7.30;31.48;100883.41;5114921;28;20116;-71
2022/03/07 14:34:59;;;;;;;9.20;6.78;;;;;;;7.41;31.89;100887.75;5115188;28;20100;-70
2022/03/07 14:37:34;;;;;;;9.35;7.18;;;;;;;7.40;31.35;100885.22;5115125;27;20035;-70
2022/03/07 14:40:00;;;;;;;9.95;6.72;;;;;;;7.25;31.96;100882.97;5113503;28;20046;-70
2022/03/07 14:42:27;;;;;;;8.93;7.35;;;;;;;6.92;32.17;100891.25;5114530;28;20043;-71
2022/03/07 14:44:54;;;;;;;8.88;7.05;;;;;;;6.91;32.34;100895.72;5114813;28;20035;-70
2022/03/07 14:47:20;;;;;;;10.57;8.13;;;;;;;6.93;32.40;100895.56;5114780;28;20028;-70
2022/03/07 14:49:47;;;;;;;10.63;7.65;;;;;;;6.48;32.57;100885.34;5114728;28;20020;-71
2022/03/07 14:52:17;;;;;;;8.98;7.03;;;;;;;6.65;33.48;100883.88;5114356;28;20032;-71
2022/03/07 14:54:43;;;;;;;10.50;7.45;;;;;;;6.57;33.10;100887.19;5114138;28;20066;-71
2022/03/07 14:57:10;;;;;;;8.95;6.40;;;;;;;6.61;32.75;100883.31;5114532;28;20491;-70
2022/03/07 14:59:36;;;;;;;9.05;6.70;;;;;;;6.61;33.18;100885.13;5114550;28;20506;-69
2022/03/07 15:02:03;;;;;;;10.57;7.53;;;;;;;6.71;32.29;100886.81;5114082;28;20063;-69
2022/03/07 15:04:29;;;;;;;9.00;7.70;;;;;;;6.49;33.31;100877.25;5113757;28;20048;-69
2022/03/07 15:06:55;;;;;;;9.48;6.97;;;;;;;6.35;33.10;100882.91;5113004;28;20046;-69
2022/03/07 15:09:20;;;;;;;10.75;7.63;;;;;;;6.46;33.21;100880.19;5112930;28;20077;-71
2022/03/07 15:11:46;;;;;;;9.55;7.13;;;;;;;6.48;33.59;100882.69;5113994;28;20031;-71
2022/03/07 15:14:14;;;;;;;11.00;7.47;;;;;;;6.27;33.60;100885.38;5114109;28;20043;-72
2022/03/07 15:16:41;;;;;;;9.45;7.15;;;;;;;6.31;33.04;100888.56;5114167;28;20205;-72
2022/03/07 15:19:09;;;;;;;10.35;7.95;;;;;;;6.22;33.57;100883.09;5114210;27;20035;-70
2022/03/07 15:21:36;;;;;;;10.18;7.60;;;;;;;6.26;33.96;100883.69;5113914;28;20043;-70
2022/03/07 15:24:02;;;;;;;9.38;7.63;;;;;;;6.28;33.81;100883.56;5114124;28;20437;-69
2022/03/07 15:26:29;;;;;;;8.82;7.20;;;;;;;6.35;34.28;100890.00;5113932;28;20043;-69
2022/03/07 15:29:03;;;;;;;10.10;8.23;;;;;;;6.03;33.87;100890.91;5114013;28;20040;-70
2022/03/07 15:31:29;;;;;;;9.52;7.53;;;;;;;6.03;33.88;100893.53;5113772;28;20105;-70
2022/03/07 15:33:55;;;;;;;10.93;8.05;;;;;;;5.97;34.49;100899.34;5113574;28;20544;-70
2022/03/07 15:36:22;;;;;;;10.35;7.78;;;;;;;5.88;34.20;100898.28;5112364;28;20118;-69
2022/03/07 15:38:48;;;;;;;10.82;8.02;;;;;;;5.90;34.40;100898.16;5113872;28;20061;-70
2022/03/07 15:41:14;;;;;;;10.63;8.07;;;;;;;5.82;34.35;100890.84;5113885;28;20441;-69
2022/03/07 15:43:41;;;;;;;11.50;7.72;;;;;;;5.81;34.73;100888.34;5113590;28;20110;-69
2022/03/07 15:46:08;;;;;;;10.15;7.85;;;;;;;5.76;34.66;100893.16;5113554;28;20518;-71
2022/03/07 15:48:34;;;;;;;9.43;6.93;;;;;;;5.64;34.51;100895.00;5114037;27;20338;-69
2022/03/07 15:51:01;;;;;;;12.88;8.00;;;;;;;5.81;34.31;100891.00;5112352;28;20028;-70
2022/03/07 15:53:27;;;;;;;10.45;8.00;;;;;;;5.77;34.74;100897.47;5113272;28;20127;-71
2022/03/07 15:55:54;;;;;;;12.13;8.02;;;;;;;5.69;34.16;100871.69;5113520;28;20111;-69
2022/03/07 15:58:21;;;;;;;10.02;7.88;;;;;;;5.68;34.96;100878.78;5113508;28;20056;-69
2022/03/07 16:00:46;;;;;;;8.77;7.00;;;;;;;5.56;34.70;100879.78;5113267;28;20136;-68
2022/03/07 16:03:13;;;;;;;10.50;8.00;;;;;;;5.55;35.18;100883.41;5112905;28;20027;-69
2022/03/07 16:05:42;;;;;;;10.60;7.60;;;;;;;5.64;35.03;100881.78;5112302;28;20110;-69
2022/03/07 16:08:09;;;;;;;11.10;8.10;;;;;;;5.67;34.82;100876.25;5112042;28;20114;-70
2022/03/07 16:10:41;;;;;;;11.57;8.50;;;;;;;5.65;34.62;100884.31;5111919;28;20071;-71
2022/03/07 16:13:15;;;;;;;10.57;7.50;;;;;;;5.21;35.67;100879.13;5113016;28;20035;-69
2022/03/07 16:15:43;;;;;;;10.60;7.80;;;;;;;5.37;35.68;100890.16;5111662;28;20374;-69
2022/03/07 16:18:09;;;;;;;10.52;8.65;;;;;;;5.21;35.99;100874.69;5095291;28;20035;-69
2022/03/07 16:20:36;;;;;;;11.35;8.45;;;;;;;5.11;35.78;100886.97;5113030;28;20109;-69
2022/03/07 16:23:03;;;;;;;11.07;8.15;;;;;;;5.14;35.74;100884.06;5111700;28;20042;-70
2022/03/07 16:25:32;;;;;;;12.23;8.55;;;;;;;5.17;35.50;100889.13;5111772;28;20020;-71
2022/03/07 16:27:58;;;;;;;12.77;8.25;;;;;;;5.18;35.71;100880.25;5112913;28;20046;-72
2022/03/07 16:30:24;;;;;;;12.40;7.97;;;;;;;4.98;36.44;100889.75;5112790;27;20035;-71
2022/03/07 16:32:51;;;;;;;10.57;8.68;;;;;;;5.05;35.85;100885.66;5112634;28;20111;-71
2022/03/07 16:35:18;;;;;;;12.07;8.57;;;;;;;5.02;35.86;100885.06;5112769;28;20447;-70
2022/03/07 16:37:44;;;;;;;11.45;7.80;;;;;;;4.93;35.81;100888.44;5112794;28;20039;-71
2022/03/07 16:40:10;;;;;;;10.75;8.40;;;;;;;4.78;36.47;100888.69;5111465;28;20399;-70
2022/03/07 16:42:37;;;;;;;11.40;9.23;;;;;;;4.87;35.85;100887.94;5111084;28;20476;-71
2022/03/07 16:45:07;;;;;;;12.88;8.95;;;;;;;4.79;36.83;100894.81;5112680;28;20038;-71
2022/03/07 16:47:35;;;;;;;10.25;7.55;;;;;;;4.56;36.93;100889.53;5111695;28;20031;-71
2022/03/07 16:50:07;;;;;;;9.45;7.20;;;;;;;4.59;36.78;100896.34;5111761;28;20035;-70
2022/03/07 16:52:34;;;;;;;13.60;7.85;;;;;;;4.61;37.18;100894.44;5112187;28;20499;-73